LGL714 GCTS-ELLX
Flight info
| Callsign | LGL714 |
|---|---|
| Flight time | 4h 2m |
| Altitude | 36000 |
| Route | KONBA UN866 BEXAL/N0446F380 DCT TOSDI N745 ZMR N976 DGO L176 CEGAM/N0368F220 L176 LUSEM/N0443F380 DCT LULUT DCT ADABI/N0434F340 DCT BOKNO DCT DIBES DCT VIQAQ DCT TSU UM163 LEQOS DCT CTL DCT MMD |
| Aircraft | B38M/M-SDE1FGHILORVWXY/HB1 |
Departure
| Time | 2026-04-27 14:23 |
|---|---|
| Airport | Tenerife Sur Airport (GCTS) |
Arrival
| Time | 2026-04-27 18:26 |
|---|---|
| Airport | Luxembourg-Findel International Airport (ELLX) |
| Time | Latitude | Longitude | Altitude | Speed | Heading |
|---|---|---|---|---|---|
| 2026-04-27 13:48 | 28.04640 | -16.57896 | 228 ft | 0 kts | 5° |
| 2026-04-27 14:14 | 28.04625 | -16.57898 | 228 ft | 4 kts | 4° |
| 2026-04-27 14:15 | 28.04598 | -16.57899 | 229 ft | 4 kts | 358° |
| 2026-04-27 14:15 | 28.04571 | -16.57895 | 229 ft | 4 kts | 342° |
| 2026-04-27 14:15 | 28.04553 | -16.57882 | 229 ft | 4 kts | 284° |
| 2026-04-27 14:15 | 28.04552 | -16.57875 | 230 ft | 2 kts | 257° |
| 2026-04-27 14:18 | 28.04552 | -16.57877 | 230 ft | 1 kts | 257° |
| 2026-04-27 14:18 | 28.04542 | -16.57912 | 228 ft | 10 kts | 251° |
| 2026-04-27 14:19 | 28.04498 | -16.57928 | 226 ft | 8 kts | 160° |
| 2026-04-27 14:19 | 28.04428 | -16.57900 | 225 ft | 12 kts | 178° |
| 2026-04-27 14:19 | 28.04378 | -16.57969 | 225 ft | 13 kts | 249° |
| 2026-04-27 14:19 | 28.04345 | -16.58067 | 226 ft | 14 kts | 248° |
| 2026-04-27 14:20 | 28.04306 | -16.58174 | 225 ft | 15 kts | 247° |
| 2026-04-27 14:20 | 28.04266 | -16.58291 | 225 ft | 17 kts | 248° |
| 2026-04-27 14:20 | 28.04222 | -16.58418 | 225 ft | 18 kts | 249° |
| 2026-04-27 14:20 | 28.04180 | -16.58556 | 225 ft | 19 kts | 253° |
| 2026-04-27 14:21 | 28.04128 | -16.58710 | 220 ft | 21 kts | 249° |
| 2026-04-27 14:21 | 28.04086 | -16.58834 | 216 ft | 18 kts | 246° |
| 2026-04-27 14:21 | 28.03988 | -16.58841 | 212 ft | 18 kts | 127° |
| 2026-04-27 14:21 | 28.03945 | -16.58719 | 210 ft | 13 kts | 101° |
| 2026-04-27 14:22 | 28.03957 | -16.58655 | 198 ft | 8 kts | 70° |
| 2026-04-27 14:22 | 28.03968 | -16.58624 | 205 ft | 0 kts | 68° |
| 2026-04-27 14:22 | 28.03979 | -16.58593 | 202 ft | 11 kts | 67° |
| 2026-04-27 14:23 | 28.04100 | -16.58244 | 198 ft | 85 kts | 68° |
| 2026-04-27 14:23 | 28.04393 | -16.57404 | 208 ft | 146 kts | 68° |
| 2026-04-27 14:23 | 28.04821 | -16.56188 | 447 ft | 174 kts | 70° |
| 2026-04-27 14:23 | 28.05270 | -16.54893 | 1159 ft | 178 kts | 67° |
| 2026-04-27 14:24 | 28.05749 | -16.53597 | 1956 ft | 181 kts | 65° |
| 2026-04-27 14:24 | 28.06241 | -16.52217 | 2444 ft | 199 kts | 68° |
| 2026-04-27 14:24 | 28.06767 | -16.50661 | 2801 ft | 225 kts | 68° |
| 2026-04-27 14:24 | 28.07365 | -16.48915 | 3284 ft | 244 kts | 68° |
| 2026-04-27 14:25 | 28.07988 | -16.47113 | 4110 ft | 252 kts | 67° |
| 2026-04-27 14:25 | 28.08644 | -16.45203 | 4735 ft | 266 kts | 68° |
| 2026-04-27 14:25 | 28.09276 | -16.43234 | 5675 ft | 267 kts | 68° |
| 2026-04-27 14:25 | 28.09916 | -16.41243 | 6549 ft | 270 kts | 68° |
| 2026-04-27 14:26 | 28.10564 | -16.39236 | 7384 ft | 273 kts | 68° |
| 2026-04-27 14:26 | 28.11224 | -16.37196 | 8157 ft | 278 kts | 68° |
| 2026-04-27 14:26 | 28.11895 | -16.35120 | 8960 ft | 283 kts | 68° |
| 2026-04-27 14:26 | 28.12603 | -16.33022 | 9751 ft | 286 kts | 60° |
| 2026-04-27 14:27 | 28.13791 | -16.31235 | 10432 ft | 289 kts | 41° |
| 2026-04-27 14:27 | 28.15478 | -16.29910 | 10766 ft | 304 kts | 21° |
| 2026-04-27 14:27 | 28.17560 | -16.29247 | 11151 ft | 319 kts | 12° |
| 2026-04-27 14:27 | 28.19753 | -16.28606 | 11570 ft | 332 kts | 13° |
| 2026-04-27 14:28 | 28.21990 | -16.27931 | 12346 ft | 333 kts | 13° |
| 2026-04-27 14:28 | 28.24247 | -16.27243 | 13000 ft | 339 kts | 13° |
| 2026-04-27 14:28 | 28.26535 | -16.26539 | 13714 ft | 343 kts | 13° |
| 2026-04-27 14:28 | 28.28853 | -16.25826 | 14350 ft | 347 kts | 13° |
| 2026-04-27 14:29 | 28.31197 | -16.25104 | 14999 ft | 350 kts | 13° |
| 2026-04-27 14:29 | 28.33563 | -16.24374 | 15638 ft | 354 kts | 13° |
| 2026-04-27 14:29 | 28.35951 | -16.23637 | 16262 ft | 358 kts | 13° |
| 2026-04-27 14:29 | 28.38366 | -16.22891 | 16882 ft | 361 kts | 13° |
| 2026-04-27 14:30 | 28.40808 | -16.22138 | 17489 ft | 365 kts | 13° |
| 2026-04-27 14:30 | 28.43237 | -16.21387 | 18074 ft | 369 kts | 13° |
| 2026-04-27 14:30 | 28.45726 | -16.20617 | 18635 ft | 372 kts | 13° |
| 2026-04-27 14:30 | 28.48235 | -16.19841 | 19170 ft | 374 kts | 13° |
| 2026-04-27 14:31 | 28.50753 | -16.19062 | 19739 ft | 376 kts | 13° |
| 2026-04-27 14:31 | 28.53285 | -16.18277 | 20270 ft | 378 kts | 13° |
| 2026-04-27 14:31 | 28.55833 | -16.17488 | 20795 ft | 381 kts | 13° |
| 2026-04-27 14:31 | 28.58396 | -16.16694 | 21320 ft | 383 kts | 13° |
| 2026-04-27 14:32 | 28.60979 | -16.15893 | 21831 ft | 386 kts | 13° |
| 2026-04-27 14:32 | 28.63573 | -16.15088 | 22338 ft | 388 kts | 13° |
| 2026-04-27 14:32 | 28.66185 | -16.14277 | 22832 ft | 390 kts | 13° |
| 2026-04-27 14:32 | 28.68817 | -16.13461 | 23320 ft | 393 kts | 13° |
| 2026-04-27 14:33 | 28.71463 | -16.12638 | 23770 ft | 395 kts | 13° |
| 2026-04-27 14:33 | 28.74124 | -16.11812 | 24156 ft | 397 kts | 13° |
| 2026-04-27 14:33 | 28.76800 | -16.10980 | 24565 ft | 399 kts | 13° |
| 2026-04-27 14:33 | 28.79486 | -16.10145 | 24950 ft | 402 kts | 13° |
| 2026-04-27 14:34 | 28.82193 | -16.09302 | 25330 ft | 404 kts | 13° |
| 2026-04-27 14:34 | 28.84909 | -16.08457 | 25697 ft | 406 kts | 13° |
| 2026-04-27 14:34 | 28.87643 | -16.07605 | 26072 ft | 408 kts | 13° |
| 2026-04-27 14:34 | 28.90386 | -16.06750 | 26432 ft | 410 kts | 13° |
| 2026-04-27 14:35 | 28.93149 | -16.05889 | 26793 ft | 412 kts | 13° |
| 2026-04-27 14:35 | 28.95924 | -16.05023 | 27144 ft | 414 kts | 13° |
| 2026-04-27 14:35 | 28.98711 | -16.04153 | 27495 ft | 417 kts | 13° |
| 2026-04-27 14:35 | 29.01517 | -16.03276 | 27832 ft | 419 kts | 13° |
| 2026-04-27 14:36 | 29.04334 | -16.02396 | 28163 ft | 421 kts | 13° |
| 2026-04-27 14:36 | 29.07165 | -16.01510 | 28507 ft | 423 kts | 13° |
| 2026-04-27 14:36 | 29.10010 | -16.00620 | 28811 ft | 425 kts | 13° |
| 2026-04-27 14:36 | 29.12873 | -15.99724 | 29136 ft | 427 kts | 13° |
| 2026-04-27 14:37 | 29.15741 | -15.98826 | 29433 ft | 429 kts | 13° |
| 2026-04-27 14:37 | 29.18635 | -15.97919 | 29757 ft | 432 kts | 13° |
| 2026-04-27 14:37 | 29.21538 | -15.97009 | 30054 ft | 434 kts | 13° |
| 2026-04-27 14:37 | 29.24455 | -15.96093 | 30320 ft | 436 kts | 13° |
| 2026-04-27 14:38 | 29.27382 | -15.95175 | 30579 ft | 437 kts | 13° |
| 2026-04-27 14:38 | 29.30323 | -15.94251 | 30841 ft | 439 kts | 13° |
| 2026-04-27 14:38 | 29.33266 | -15.93326 | 31107 ft | 440 kts | 12° |
| 2026-04-27 14:38 | 29.36223 | -15.92396 | 31369 ft | 441 kts | 12° |
| 2026-04-27 14:39 | 29.39189 | -15.91462 | 31632 ft | 443 kts | 12° |
| 2026-04-27 14:39 | 29.42159 | -15.90528 | 31961 ft | 442 kts | 12° |
| 2026-04-27 14:39 | 29.45116 | -15.89597 | 32329 ft | 440 kts | 12° |
| 2026-04-27 14:39 | 29.48068 | -15.88668 | 32692 ft | 439 kts | 12° |
| 2026-04-27 14:40 | 29.50971 | -15.87754 | 33047 ft | 438 kts | 11° |
| 2026-04-27 14:40 | 29.53907 | -15.86828 | 33401 ft | 436 kts | 11° |
| 2026-04-27 14:40 | 29.56868 | -15.85894 | 33748 ft | 435 kts | 11° |
| 2026-04-27 14:40 | 29.59782 | -15.84974 | 34089 ft | 434 kts | 11° |
| 2026-04-27 14:41 | 29.62655 | -15.84067 | 34357 ft | 433 kts | 11° |
| 2026-04-27 14:41 | 29.65561 | -15.83148 | 34584 ft | 434 kts | 11° |
| 2026-04-27 14:41 | 29.68477 | -15.82225 | 34783 ft | 434 kts | 11° |
| 2026-04-27 14:41 | 29.71386 | -15.81304 | 34997 ft | 434 kts | 11° |
| 2026-04-27 14:42 | 29.74303 | -15.80381 | 35207 ft | 435 kts | 11° |
| 2026-04-27 14:42 | 29.77223 | -15.79455 | 35408 ft | 435 kts | 11° |
| 2026-04-27 14:42 | 29.80141 | -15.78529 | 35611 ft | 435 kts | 11° |
| 2026-04-27 14:42 | 29.83060 | -15.77602 | 35799 ft | 436 kts | 11° |
| 2026-04-27 14:43 | 29.85985 | -15.76673 | 35984 ft | 436 kts | 11° |
| 2026-04-27 14:43 | 29.91843 | -15.74810 | 36068 ft | 436 kts | 11° |
| 2026-04-27 14:44 | 29.97679 | -15.72952 | 36066 ft | 435 kts | 11° |
| 2026-04-27 14:44 | 30.03514 | -15.71092 | 36065 ft | 435 kts | 11° |
| 2026-04-27 14:45 | 30.09355 | -15.69228 | 36066 ft | 436 kts | 11° |
| 2026-04-27 14:45 | 30.15201 | -15.67359 | 36066 ft | 436 kts | 11° |
| 2026-04-27 14:46 | 30.21047 | -15.65489 | 36069 ft | 436 kts | 11° |
| 2026-04-27 14:46 | 30.26905 | -15.63612 | 36066 ft | 437 kts | 11° |
| 2026-04-27 14:47 | 30.32762 | -15.61734 | 36061 ft | 437 kts | 11° |
| 2026-04-27 14:47 | 30.38623 | -15.59851 | 36062 ft | 437 kts | 11° |
| 2026-04-27 14:48 | 30.44490 | -15.57965 | 36065 ft | 438 kts | 12° |
| 2026-04-27 14:48 | 30.53296 | -15.55129 | 36061 ft | 438 kts | 12° |
| 2026-04-27 14:49 | 30.59167 | -15.53235 | 36064 ft | 438 kts | 12° |
| 2026-04-27 14:49 | 30.65012 | -15.51348 | 36062 ft | 439 kts | 12° |
| 2026-04-27 14:50 | 30.70891 | -15.49446 | 36065 ft | 439 kts | 12° |
| 2026-04-27 14:50 | 30.76780 | -15.47539 | 36062 ft | 439 kts | 12° |
| 2026-04-27 14:51 | 30.82674 | -15.45629 | 36065 ft | 440 kts | 12° |
| 2026-04-27 14:51 | 30.87615 | -15.44025 | 36058 ft | 440 kts | 12° |
| 2026-04-27 14:52 | 30.94474 | -15.41795 | 36064 ft | 441 kts | 12° |
| 2026-04-27 14:52 | 31.00383 | -15.39873 | 36066 ft | 441 kts | 12° |
| 2026-04-27 14:53 | 31.06300 | -15.37944 | 36068 ft | 441 kts | 12° |
| 2026-04-27 14:53 | 31.12217 | -15.36013 | 36057 ft | 442 kts | 12° |
| 2026-04-27 14:54 | 31.18136 | -15.34080 | 36057 ft | 442 kts | 12° |
| 2026-04-27 14:54 | 31.24063 | -15.32141 | 36057 ft | 442 kts | 12° |
| 2026-04-27 14:55 | 31.29950 | -15.30043 | 36042 ft | 445 kts | 23° |
| 2026-04-27 14:55 | 31.35214 | -15.26167 | 36047 ft | 449 kts | 30° |
| 2026-04-27 14:56 | 31.40443 | -15.22145 | 36058 ft | 450 kts | 31° |
| 2026-04-27 14:56 | 31.45662 | -15.18095 | 36057 ft | 450 kts | 31° |
| 2026-04-27 14:57 | 31.50885 | -15.14037 | 36061 ft | 451 kts | 31° |
| 2026-04-27 14:57 | 31.56110 | -15.09970 | 36057 ft | 451 kts | 31° |
| 2026-04-27 14:58 | 31.61336 | -15.05898 | 36056 ft | 451 kts | 31° |
| 2026-04-27 14:58 | 31.66563 | -15.01820 | 36055 ft | 451 kts | 31° |
| 2026-04-27 14:59 | 31.71753 | -14.97765 | 36056 ft | 451 kts | 31° |
| 2026-04-27 14:59 | 31.76977 | -14.93677 | 36056 ft | 451 kts | 31° |
| 2026-04-27 15:00 | 31.82198 | -14.89586 | 36054 ft | 451 kts | 31° |
| 2026-04-27 15:00 | 31.87419 | -14.85490 | 36052 ft | 451 kts | 31° |
| 2026-04-27 15:01 | 31.92642 | -14.81386 | 36054 ft | 451 kts | 31° |
| 2026-04-27 15:01 | 31.97867 | -14.77275 | 36053 ft | 452 kts | 31° |
| 2026-04-27 15:02 | 32.03093 | -14.73157 | 36050 ft | 452 kts | 31° |
| 2026-04-27 15:02 | 32.08317 | -14.69035 | 36047 ft | 452 kts | 31° |
| 2026-04-27 15:03 | 32.13545 | -14.64904 | 36049 ft | 452 kts | 31° |
| 2026-04-27 15:03 | 32.18770 | -14.60771 | 36051 ft | 452 kts | 31° |
| 2026-04-27 15:04 | 32.23114 | -14.57331 | 36047 ft | 452 kts | 31° |
| 2026-04-27 15:04 | 32.28341 | -14.53184 | 36051 ft | 452 kts | 31° |
| 2026-04-27 15:05 | 32.33567 | -14.49032 | 36048 ft | 452 kts | 31° |
| 2026-04-27 15:05 | 32.39637 | -14.44203 | 36043 ft | 453 kts | 31° |
| 2026-04-27 15:06 | 32.44865 | -14.40038 | 36044 ft | 453 kts | 32° |
| 2026-04-27 15:06 | 32.49242 | -14.36545 | 36051 ft | 453 kts | 32° |
| 2026-04-27 15:07 | 32.54432 | -14.32401 | 36042 ft | 453 kts | 32° |
| 2026-04-27 15:07 | 32.59659 | -14.28217 | 36045 ft | 454 kts | 32° |
| 2026-04-27 15:08 | 32.64889 | -14.24027 | 36044 ft | 454 kts | 32° |
| 2026-04-27 15:08 | 32.70121 | -14.19828 | 36044 ft | 454 kts | 32° |
| 2026-04-27 15:09 | 32.75356 | -14.15623 | 36043 ft | 454 kts | 32° |
| 2026-04-27 15:09 | 32.80592 | -14.11409 | 36042 ft | 454 kts | 32° |
| 2026-04-27 15:10 | 32.85820 | -14.07196 | 36039 ft | 454 kts | 32° |
| 2026-04-27 15:10 | 32.91053 | -14.02974 | 36036 ft | 455 kts | 32° |
| 2026-04-27 15:11 | 32.96289 | -13.98742 | 36036 ft | 455 kts | 32° |
| 2026-04-27 15:11 | 33.01530 | -13.94501 | 36038 ft | 455 kts | 32° |
| 2026-04-27 15:12 | 33.06775 | -13.90251 | 36039 ft | 456 kts | 32° |
| 2026-04-27 15:12 | 33.12018 | -13.85997 | 36033 ft | 456 kts | 32° |
| 2026-04-27 15:13 | 33.17256 | -13.81716 | 36031 ft | 457 kts | 33° |
| 2026-04-27 15:13 | 33.22497 | -13.77420 | 36031 ft | 457 kts | 33° |
| 2026-04-27 15:14 | 33.27737 | -13.73119 | 36029 ft | 457 kts | 33° |
| 2026-04-27 15:14 | 33.32979 | -13.68811 | 36026 ft | 457 kts | 33° |
| 2026-04-27 15:15 | 33.38213 | -13.64502 | 36025 ft | 457 kts | 33° |
| 2026-04-27 15:15 | 33.43414 | -13.60215 | 36026 ft | 457 kts | 33° |
| 2026-04-27 15:16 | 33.48649 | -13.55892 | 36027 ft | 457 kts | 33° |
| 2026-04-27 15:16 | 33.53886 | -13.51563 | 36028 ft | 458 kts | 33° |
| 2026-04-27 15:17 | 33.59124 | -13.47224 | 36019 ft | 458 kts | 33° |
| 2026-04-27 15:17 | 33.64369 | -13.42875 | 36020 ft | 458 kts | 33° |
| 2026-04-27 15:18 | 33.69619 | -13.38514 | 36021 ft | 459 kts | 34° |
| 2026-04-27 15:18 | 33.74868 | -13.34148 | 36023 ft | 459 kts | 33° |
| 2026-04-27 15:19 | 33.80121 | -13.29772 | 36021 ft | 459 kts | 34° |
| 2026-04-27 15:19 | 33.85370 | -13.25392 | 36013 ft | 459 kts | 34° |
| 2026-04-27 15:20 | 33.90620 | -13.21005 | 36015 ft | 459 kts | 34° |
| 2026-04-27 15:20 | 33.95867 | -13.16614 | 36012 ft | 459 kts | 34° |
| 2026-04-27 15:21 | 34.01108 | -13.12220 | 36013 ft | 459 kts | 34° |
| 2026-04-27 15:21 | 34.06355 | -13.07816 | 36011 ft | 459 kts | 34° |
| 2026-04-27 15:22 | 34.11594 | -13.03410 | 36013 ft | 459 kts | 34° |
| 2026-04-27 15:22 | 34.16799 | -12.99028 | 36012 ft | 459 kts | 34° |
| 2026-04-27 15:23 | 34.22042 | -12.94608 | 36006 ft | 459 kts | 34° |
| 2026-04-27 15:23 | 34.27294 | -12.90193 | 36005 ft | 460 kts | 34° |
| 2026-04-27 15:24 | 34.32548 | -12.85794 | 36005 ft | 459 kts | 34° |
| 2026-04-27 15:24 | 34.37801 | -12.81390 | 36004 ft | 460 kts | 34° |
| 2026-04-27 15:25 | 34.43058 | -12.76976 | 36003 ft | 460 kts | 34° |
| 2026-04-27 15:25 | 34.48314 | -12.72556 | 36000 ft | 460 kts | 34° |
| 2026-04-27 15:26 | 34.53568 | -12.68131 | 36000 ft | 460 kts | 34° |
| 2026-04-27 15:26 | 34.58825 | -12.63697 | 35999 ft | 460 kts | 34° |
| 2026-04-27 15:27 | 34.64071 | -12.59263 | 35998 ft | 460 kts | 34° |
| 2026-04-27 15:27 | 34.69319 | -12.54822 | 36000 ft | 460 kts | 34° |
| 2026-04-27 15:28 | 34.74570 | -12.50371 | 35996 ft | 460 kts | 34° |
| 2026-04-27 15:28 | 34.79816 | -12.45918 | 35995 ft | 460 kts | 34° |
| 2026-04-27 15:29 | 34.85063 | -12.41456 | 35997 ft | 460 kts | 34° |
| 2026-04-27 15:29 | 34.90308 | -12.36989 | 35996 ft | 460 kts | 34° |
| 2026-04-27 15:30 | 34.95527 | -12.32537 | 35997 ft | 461 kts | 34° |
| 2026-04-27 15:30 | 35.00771 | -12.28057 | 35990 ft | 461 kts | 35° |
| 2026-04-27 15:31 | 35.06020 | -12.23565 | 35991 ft | 461 kts | 35° |
| 2026-04-27 15:31 | 35.11271 | -12.19065 | 35990 ft | 461 kts | 35° |
| 2026-04-27 15:32 | 35.16524 | -12.14555 | 35995 ft | 462 kts | 35° |
| 2026-04-27 15:32 | 35.21787 | -12.10030 | 35994 ft | 462 kts | 35° |
| 2026-04-27 15:33 | 35.27045 | -12.05501 | 35993 ft | 462 kts | 35° |
| 2026-04-27 15:33 | 35.32303 | -12.00965 | 35993 ft | 463 kts | 35° |
| 2026-04-27 15:34 | 35.37563 | -11.96420 | 35993 ft | 463 kts | 35° |
| 2026-04-27 15:34 | 35.42827 | -11.91864 | 35993 ft | 463 kts | 35° |
| 2026-04-27 15:35 | 35.48081 | -11.87310 | 35990 ft | 463 kts | 35° |
| 2026-04-27 15:35 | 35.53335 | -11.82748 | 35990 ft | 463 kts | 35° |
| 2026-04-27 15:36 | 35.58591 | -11.78176 | 35993 ft | 463 kts | 35° |
| 2026-04-27 15:36 | 35.63841 | -11.73603 | 35992 ft | 463 kts | 35° |
| 2026-04-27 15:37 | 35.69094 | -11.69020 | 35994 ft | 463 kts | 35° |
| 2026-04-27 15:37 | 35.74348 | -11.64428 | 35991 ft | 463 kts | 35° |
| 2026-04-27 15:38 | 35.79603 | -11.59827 | 35990 ft | 463 kts | 35° |
| 2026-04-27 15:38 | 35.84856 | -11.55222 | 35989 ft | 464 kts | 35° |
| 2026-04-27 15:39 | 35.90112 | -11.50607 | 35987 ft | 464 kts | 35° |
| 2026-04-27 15:39 | 35.95368 | -11.45985 | 35987 ft | 464 kts | 35° |
| 2026-04-27 15:40 | 36.00507 | -11.41159 | 35989 ft | 464 kts | 37° |
| 2026-04-27 15:40 | 36.05606 | -11.36355 | 35989 ft | 464 kts | 37° |
| 2026-04-27 15:41 | 36.10740 | -11.31519 | 35992 ft | 464 kts | 37° |
| 2026-04-27 15:41 | 36.15871 | -11.26679 | 35991 ft | 464 kts | 37° |
| 2026-04-27 15:42 | 36.20997 | -11.21834 | 35988 ft | 463 kts | 37° |
| 2026-04-27 15:42 | 36.26118 | -11.16987 | 35987 ft | 463 kts | 37° |
| 2026-04-27 15:43 | 36.31238 | -11.12132 | 35987 ft | 463 kts | 37° |
| 2026-04-27 15:43 | 36.36351 | -11.07274 | 35987 ft | 463 kts | 37° |
| 2026-04-27 15:44 | 36.41462 | -11.02413 | 35990 ft | 463 kts | 37° |
| 2026-04-27 15:44 | 36.46570 | -10.97544 | 35987 ft | 463 kts | 37° |
| 2026-04-27 15:45 | 36.51672 | -10.92672 | 35984 ft | 463 kts | 38° |
| 2026-04-27 15:45 | 36.56778 | -10.87790 | 35982 ft | 463 kts | 38° |
| 2026-04-27 15:46 | 36.61879 | -10.82904 | 35985 ft | 463 kts | 38° |
| 2026-04-27 15:46 | 36.66976 | -10.78012 | 35987 ft | 462 kts | 38° |
| 2026-04-27 15:47 | 36.72068 | -10.73117 | 35983 ft | 462 kts | 38° |
| 2026-04-27 15:47 | 36.77155 | -10.68218 | 35982 ft | 462 kts | 38° |
| 2026-04-27 15:48 | 36.82243 | -10.63311 | 35982 ft | 462 kts | 38° |
| 2026-04-27 15:49 | 36.89864 | -10.55943 | 35981 ft | 462 kts | 38° |
| 2026-04-27 15:49 | 36.94950 | -10.51017 | 35981 ft | 462 kts | 38° |
| 2026-04-27 15:50 | 36.99999 | -10.46116 | 35986 ft | 462 kts | 38° |
| 2026-04-27 15:50 | 37.05077 | -10.41180 | 35982 ft | 462 kts | 38° |
| 2026-04-27 15:51 | 37.10148 | -10.36242 | 35980 ft | 462 kts | 38° |
| 2026-04-27 15:51 | 37.15216 | -10.31299 | 35971 ft | 462 kts | 38° |
| 2026-04-27 15:52 | 37.20281 | -10.26348 | 35977 ft | 462 kts | 38° |
| 2026-04-27 15:52 | 37.25344 | -10.21392 | 35978 ft | 461 kts | 38° |
| 2026-04-27 15:53 | 37.30406 | -10.16428 | 35973 ft | 462 kts | 38° |
| 2026-04-27 15:53 | 37.35465 | -10.11458 | 35975 ft | 462 kts | 38° |
| 2026-04-27 15:54 | 37.39667 | -10.07323 | 35969 ft | 462 kts | 38° |
| 2026-04-27 15:54 | 37.44725 | -10.02339 | 35967 ft | 462 kts | 38° |
| 2026-04-27 15:55 | 37.49786 | -9.97342 | 35972 ft | 462 kts | 38° |
| 2026-04-27 15:55 | 37.54840 | -9.92344 | 35974 ft | 462 kts | 38° |
| 2026-04-27 15:56 | 37.59896 | -9.87334 | 35973 ft | 463 kts | 38° |
| 2026-04-27 15:56 | 37.64954 | -9.82315 | 35973 ft | 463 kts | 38° |
| 2026-04-27 15:57 | 37.70014 | -9.77282 | 35968 ft | 463 kts | 38° |
| 2026-04-27 15:57 | 37.75075 | -9.72242 | 35966 ft | 464 kts | 38° |
| 2026-04-27 15:58 | 37.80136 | -9.67190 | 35962 ft | 463 kts | 39° |
| 2026-04-27 15:58 | 37.85194 | -9.62134 | 35961 ft | 463 kts | 39° |
| 2026-04-27 15:59 | 37.90249 | -9.57072 | 35961 ft | 463 kts | 39° |
| 2026-04-27 15:59 | 37.95295 | -9.52009 | 35955 ft | 463 kts | 39° |
| 2026-04-27 16:00 | 38.00339 | -9.46939 | 35955 ft | 463 kts | 39° |
| 2026-04-27 16:00 | 38.05384 | -9.41859 | 35949 ft | 463 kts | 39° |
| 2026-04-27 16:01 | 38.10418 | -9.36782 | 35951 ft | 463 kts | 39° |
| 2026-04-27 16:01 | 38.15456 | -9.31690 | 35952 ft | 462 kts | 39° |
| 2026-04-27 16:02 | 38.20491 | -9.26592 | 35953 ft | 463 kts | 39° |
| 2026-04-27 16:02 | 38.25489 | -9.21523 | 35944 ft | 463 kts | 39° |
| 2026-04-27 16:03 | 38.30518 | -9.16413 | 35945 ft | 462 kts | 39° |
| 2026-04-27 16:03 | 38.35539 | -9.11302 | 35937 ft | 462 kts | 39° |
| 2026-04-27 16:04 | 38.40565 | -9.06177 | 35939 ft | 463 kts | 39° |
| 2026-04-27 16:04 | 38.45587 | -9.01045 | 35935 ft | 463 kts | 39° |
| 2026-04-27 16:05 | 38.50612 | -8.95902 | 35932 ft | 464 kts | 39° |
| 2026-04-27 16:05 | 38.55645 | -8.90741 | 35935 ft | 464 kts | 39° |
| 2026-04-27 16:06 | 38.60682 | -8.85565 | 35933 ft | 465 kts | 39° |
| 2026-04-27 16:06 | 38.65717 | -8.80383 | 35931 ft | 465 kts | 39° |
| 2026-04-27 16:07 | 38.70757 | -8.75186 | 35930 ft | 466 kts | 39° |
| 2026-04-27 16:07 | 38.75803 | -8.69972 | 35922 ft | 466 kts | 39° |
| 2026-04-27 16:08 | 38.80856 | -8.64743 | 35918 ft | 467 kts | 39° |
| 2026-04-27 16:08 | 38.85913 | -8.59498 | 35912 ft | 468 kts | 39° |
| 2026-04-27 16:09 | 38.90938 | -8.54277 | 35910 ft | 468 kts | 39° |
| 2026-04-27 16:09 | 38.98497 | -8.46405 | 35910 ft | 458 kts | 37° |
| 2026-04-27 16:10 | 39.08345 | -8.36116 | 35914 ft | 458 kts | 37° |
| 2026-04-27 16:11 | 39.15759 | -8.28345 | 35916 ft | 458 kts | 37° |
| 2026-04-27 16:12 | 39.23155 | -8.20570 | 35912 ft | 457 kts | 37° |
| 2026-04-27 16:13 | 39.30533 | -8.12792 | 35917 ft | 456 kts | 37° |
| 2026-04-27 16:13 | 39.37900 | -8.05005 | 35911 ft | 456 kts | 37° |
| 2026-04-27 16:14 | 39.47716 | -7.94594 | 35922 ft | 456 kts | 37° |
| 2026-04-27 16:15 | 39.57502 | -7.84176 | 35923 ft | 455 kts | 37° |
| 2026-04-27 16:16 | 39.67268 | -7.73740 | 35921 ft | 455 kts | 38° |
| 2026-04-27 16:17 | 39.77012 | -7.63288 | 35931 ft | 454 kts | 38° |
| 2026-04-27 16:18 | 39.86740 | -7.52814 | 35925 ft | 454 kts | 38° |
| 2026-04-27 16:19 | 39.91611 | -7.47554 | 35922 ft | 462 kts | 39° |
| 2026-04-27 16:20 | 40.01636 | -7.36696 | 35932 ft | 467 kts | 39° |
| 2026-04-27 16:21 | 40.09094 | -7.28592 | 35931 ft | 467 kts | 39° |
| 2026-04-27 16:22 | 40.19070 | -7.17714 | 35933 ft | 467 kts | 39° |
| 2026-04-27 16:22 | 40.26542 | -7.09537 | 35941 ft | 466 kts | 39° |
| 2026-04-27 16:23 | 40.34002 | -7.01350 | 35944 ft | 466 kts | 39° |
| 2026-04-27 16:24 | 40.38968 | -6.95886 | 35939 ft | 466 kts | 39° |
| 2026-04-27 16:25 | 40.48895 | -6.84931 | 35943 ft | 466 kts | 39° |
| 2026-04-27 16:26 | 40.58776 | -6.73988 | 35947 ft | 466 kts | 39° |
| 2026-04-27 16:27 | 40.68667 | -6.62991 | 35957 ft | 465 kts | 39° |
| 2026-04-27 16:28 | 40.81011 | -6.49205 | 35973 ft | 465 kts | 39° |
| 2026-04-27 16:29 | 40.93321 | -6.35389 | 35983 ft | 464 kts | 39° |
| 2026-04-27 16:30 | 41.03025 | -6.24113 | 35992 ft | 464 kts | 40° |
| 2026-04-27 16:31 | 41.14989 | -6.09831 | 35999 ft | 464 kts | 40° |
| 2026-04-27 16:32 | 41.22174 | -6.01225 | 36002 ft | 464 kts | 40° |
| 2026-04-27 16:33 | 41.29347 | -5.92607 | 36005 ft | 463 kts | 40° |
| 2026-04-27 16:33 | 41.34124 | -5.86853 | 36008 ft | 463 kts | 40° |
| 2026-04-27 16:34 | 41.38896 | -5.81094 | 36010 ft | 463 kts | 40° |
| 2026-04-27 16:34 | 41.43665 | -5.75325 | 36010 ft | 463 kts | 40° |
| 2026-04-27 16:35 | 41.48428 | -5.69553 | 36011 ft | 463 kts | 40° |
| 2026-04-27 16:35 | 41.52929 | -5.63439 | 35995 ft | 463 kts | 57° |
| 2026-04-27 16:36 | 41.54391 | -5.59627 | 36038 ft | 464 kts | 64° |
| 2026-04-27 16:36 | 41.57080 | -5.51770 | 36016 ft | 465 kts | 65° |
| 2026-04-27 16:37 | 41.59710 | -5.43880 | 36020 ft | 465 kts | 65° |
| 2026-04-27 16:37 | 41.62324 | -5.35992 | 36022 ft | 464 kts | 65° |
| 2026-04-27 16:38 | 41.64915 | -5.28148 | 36031 ft | 464 kts | 65° |
| 2026-04-27 16:38 | 41.67514 | -5.20256 | 36039 ft | 463 kts | 65° |
| 2026-04-27 16:39 | 41.70106 | -5.12367 | 36044 ft | 463 kts | 65° |
| 2026-04-27 16:39 | 41.72691 | -5.04473 | 36048 ft | 463 kts | 65° |
| 2026-04-27 16:40 | 41.75265 | -4.96588 | 36051 ft | 462 kts | 65° |
| 2026-04-27 16:40 | 41.77834 | -4.88697 | 36048 ft | 462 kts | 65° |
| 2026-04-27 16:41 | 41.80395 | -4.80809 | 36046 ft | 461 kts | 65° |
| 2026-04-27 16:41 | 41.82948 | -4.72924 | 36050 ft | 461 kts | 65° |
| 2026-04-27 16:42 | 41.85495 | -4.65033 | 36047 ft | 461 kts | 66° |
| 2026-04-27 16:42 | 41.88033 | -4.57147 | 36051 ft | 460 kts | 66° |
| 2026-04-27 16:43 | 41.90564 | -4.49258 | 36052 ft | 460 kts | 66° |
| 2026-04-27 16:43 | 41.92661 | -4.42706 | 36057 ft | 460 kts | 66° |
| 2026-04-27 16:44 | 41.95177 | -4.34822 | 36051 ft | 459 kts | 66° |
| 2026-04-27 16:44 | 41.97688 | -4.26934 | 36056 ft | 459 kts | 66° |
| 2026-04-27 16:45 | 42.00190 | -4.19052 | 36057 ft | 458 kts | 66° |
| 2026-04-27 16:45 | 42.02711 | -4.11192 | 36056 ft | 457 kts | 63° |
| 2026-04-27 16:46 | 42.05468 | -4.03479 | 36058 ft | 457 kts | 64° |
| 2026-04-27 16:46 | 42.08188 | -3.95753 | 36060 ft | 456 kts | 64° |
| 2026-04-27 16:47 | 42.10901 | -3.88030 | 36070 ft | 456 kts | 64° |
| 2026-04-27 16:47 | 42.13605 | -3.80308 | 36029 ft | 456 kts | 65° |
| 2026-04-27 16:48 | 42.16307 | -3.72569 | 36004 ft | 456 kts | 64° |
| 2026-04-27 16:48 | 42.19003 | -3.64828 | 36004 ft | 456 kts | 65° |
| 2026-04-27 16:49 | 42.23039 | -3.53198 | 36003 ft | 456 kts | 65° |
| 2026-04-27 16:49 | 42.25721 | -3.45442 | 35997 ft | 456 kts | 65° |
| 2026-04-27 16:50 | 42.28382 | -3.37726 | 35999 ft | 456 kts | 65° |
| 2026-04-27 16:50 | 42.31056 | -3.29951 | 36000 ft | 456 kts | 65° |
| 2026-04-27 16:51 | 42.33724 | -3.22171 | 36000 ft | 456 kts | 65° |
| 2026-04-27 16:51 | 42.36385 | -3.14388 | 35999 ft | 456 kts | 65° |
| 2026-04-27 16:52 | 42.39044 | -3.06592 | 36001 ft | 456 kts | 65° |
| 2026-04-27 16:52 | 42.41699 | -2.98786 | 36002 ft | 456 kts | 65° |
| 2026-04-27 16:53 | 42.44361 | -2.90997 | 36000 ft | 456 kts | 62° |
| 2026-04-27 16:53 | 42.46174 | -2.87499 | 35992 ft | 454 kts | 45° |
| 2026-04-27 16:53 | 42.48464 | -2.84563 | 35997 ft | 455 kts | 43° |
| 2026-04-27 16:54 | 42.53139 | -2.78737 | 36002 ft | 457 kts | 41° |
| 2026-04-27 16:54 | 42.57862 | -2.72993 | 36003 ft | 456 kts | 41° |
| 2026-04-27 16:55 | 42.62604 | -2.67259 | 36003 ft | 456 kts | 41° |
| 2026-04-27 16:55 | 42.67342 | -2.61520 | 36001 ft | 456 kts | 41° |
| 2026-04-27 16:56 | 42.72081 | -2.55770 | 36001 ft | 456 kts | 41° |
| 2026-04-27 16:56 | 42.76804 | -2.50026 | 36000 ft | 456 kts | 41° |
| 2026-04-27 16:57 | 42.81510 | -2.44291 | 35998 ft | 456 kts | 41° |
| 2026-04-27 16:57 | 42.86235 | -2.38520 | 36000 ft | 456 kts | 41° |
| 2026-04-27 16:58 | 42.90962 | -2.32734 | 36001 ft | 456 kts | 41° |
| 2026-04-27 16:58 | 42.95684 | -2.26944 | 36001 ft | 456 kts | 41° |
| 2026-04-27 16:59 | 43.00400 | -2.21140 | 36003 ft | 456 kts | 41° |
| 2026-04-27 16:59 | 43.05112 | -2.15326 | 36003 ft | 456 kts | 41° |
| 2026-04-27 17:00 | 43.12176 | -2.06592 | 36000 ft | 456 kts | 41° |
| 2026-04-27 17:01 | 43.16882 | -2.00761 | 36002 ft | 456 kts | 42° |
| 2026-04-27 17:01 | 43.21582 | -1.94924 | 35999 ft | 456 kts | 42° |
| 2026-04-27 17:02 | 43.26288 | -1.89068 | 36001 ft | 456 kts | 42° |
| 2026-04-27 17:02 | 43.31032 | -1.83290 | 36051 ft | 457 kts | 34° |
| 2026-04-27 17:02 | 43.33761 | -1.81084 | 36343 ft | 455 kts | 29° |
| 2026-04-27 17:03 | 43.36501 | -1.78879 | 36447 ft | 457 kts | 31° |
| 2026-04-27 17:03 | 43.39156 | -1.76473 | 36654 ft | 458 kts | 33° |
| 2026-04-27 17:03 | 43.41803 | -1.74038 | 36852 ft | 458 kts | 33° |
| 2026-04-27 17:03 | 43.44465 | -1.71616 | 37044 ft | 459 kts | 33° |
| 2026-04-27 17:04 | 43.47129 | -1.69206 | 37236 ft | 459 kts | 33° |
| 2026-04-27 17:04 | 43.49762 | -1.66828 | 37433 ft | 459 kts | 33° |
| 2026-04-27 17:04 | 43.52427 | -1.64419 | 37633 ft | 458 kts | 33° |
| 2026-04-27 17:04 | 43.55094 | -1.62008 | 37823 ft | 458 kts | 33° |
| 2026-04-27 17:05 | 43.57755 | -1.59600 | 37981 ft | 457 kts | 33° |
| 2026-04-27 17:05 | 43.63079 | -1.54772 | 37997 ft | 457 kts | 33° |
| 2026-04-27 17:06 | 43.68387 | -1.49950 | 38001 ft | 457 kts | 33° |
| 2026-04-27 17:06 | 43.73694 | -1.45117 | 38000 ft | 457 kts | 33° |
| 2026-04-27 17:07 | 43.79002 | -1.40274 | 38000 ft | 457 kts | 33° |
| 2026-04-27 17:07 | 43.84310 | -1.35419 | 38000 ft | 457 kts | 33° |
| 2026-04-27 17:08 | 43.89613 | -1.30560 | 38000 ft | 457 kts | 33° |
| 2026-04-27 17:08 | 43.94918 | -1.25687 | 38000 ft | 457 kts | 33° |
| 2026-04-27 17:09 | 44.00209 | -1.20816 | 38000 ft | 457 kts | 33° |
| 2026-04-27 17:09 | 44.05511 | -1.15926 | 38000 ft | 457 kts | 33° |
| 2026-04-27 17:10 | 44.10774 | -1.11060 | 38000 ft | 457 kts | 33° |
| 2026-04-27 17:10 | 44.16066 | -1.06157 | 38000 ft | 457 kts | 33° |
| 2026-04-27 17:11 | 44.21356 | -1.01245 | 38000 ft | 457 kts | 33° |
| 2026-04-27 17:11 | 44.29291 | -0.93857 | 38000 ft | 457 kts | 33° |
| 2026-04-27 17:12 | 44.37221 | -0.86453 | 38000 ft | 457 kts | 33° |
| 2026-04-27 17:13 | 44.42793 | -0.82262 | 38005 ft | 455 kts | 22° |
| 2026-04-27 17:13 | 44.48603 | -0.78666 | 38004 ft | 457 kts | 23° |
| 2026-04-27 17:14 | 44.54431 | -0.75096 | 38000 ft | 457 kts | 23° |
| 2026-04-27 17:14 | 44.60258 | -0.71530 | 38000 ft | 457 kts | 23° |
| 2026-04-27 17:15 | 44.66084 | -0.67958 | 38000 ft | 457 kts | 23° |
| 2026-04-27 17:15 | 44.71911 | -0.64377 | 38000 ft | 457 kts | 23° |
| 2026-04-27 17:16 | 44.77735 | -0.60790 | 38000 ft | 457 kts | 23° |
| 2026-04-27 17:16 | 44.83559 | -0.57197 | 38000 ft | 457 kts | 23° |
| 2026-04-27 17:17 | 44.89383 | -0.53594 | 38000 ft | 457 kts | 23° |
| 2026-04-27 17:17 | 44.95168 | -0.50007 | 38000 ft | 457 kts | 23° |
| 2026-04-27 17:18 | 45.03897 | -0.44581 | 38000 ft | 457 kts | 23° |
| 2026-04-27 17:18 | 45.09717 | -0.40953 | 38000 ft | 457 kts | 23° |
| 2026-04-27 17:19 | 45.15533 | -0.37319 | 38000 ft | 457 kts | 23° |
| 2026-04-27 17:19 | 45.21354 | -0.33674 | 38000 ft | 457 kts | 23° |
| 2026-04-27 17:20 | 45.27177 | -0.30019 | 38000 ft | 457 kts | 23° |
| 2026-04-27 17:20 | 45.32991 | -0.26362 | 38000 ft | 457 kts | 23° |
| 2026-04-27 17:21 | 45.38803 | -0.22699 | 38000 ft | 457 kts | 23° |
| 2026-04-27 17:21 | 45.44620 | -0.19023 | 38000 ft | 457 kts | 23° |
| 2026-04-27 17:22 | 45.50429 | -0.15344 | 38000 ft | 457 kts | 24° |
| 2026-04-27 17:22 | 45.56241 | -0.11655 | 38000 ft | 457 kts | 24° |
| 2026-04-27 17:23 | 45.62049 | -0.07960 | 38000 ft | 457 kts | 24° |
| 2026-04-27 17:23 | 45.67821 | -0.04280 | 38000 ft | 457 kts | 24° |
| 2026-04-27 17:24 | 45.73667 | -0.00543 | 38000 ft | 457 kts | 24° |
| 2026-04-27 17:24 | 45.79474 | 0.03176 | 38000 ft | 457 kts | 24° |
| 2026-04-27 17:25 | 45.85277 | 0.06902 | 38000 ft | 457 kts | 24° |
| 2026-04-27 17:25 | 45.91080 | 0.10636 | 38000 ft | 457 kts | 24° |
| 2026-04-27 17:26 | 45.96889 | 0.14383 | 38000 ft | 457 kts | 24° |
| 2026-04-27 17:26 | 46.02688 | 0.18131 | 38000 ft | 457 kts | 24° |
| 2026-04-27 17:27 | 46.08486 | 0.21889 | 38000 ft | 457 kts | 24° |
| 2026-04-27 17:27 | 46.14248 | 0.25631 | 38000 ft | 457 kts | 24° |
| 2026-04-27 17:28 | 46.20044 | 0.29403 | 38000 ft | 457 kts | 24° |
| 2026-04-27 17:29 | 46.28735 | 0.35079 | 38001 ft | 457 kts | 24° |
| 2026-04-27 17:29 | 46.34530 | 0.38872 | 38000 ft | 457 kts | 24° |
| 2026-04-27 17:30 | 46.40327 | 0.42675 | 38000 ft | 457 kts | 24° |
| 2026-04-27 17:30 | 46.49016 | 0.48391 | 38000 ft | 457 kts | 24° |
| 2026-04-27 17:31 | 46.54806 | 0.52208 | 38000 ft | 457 kts | 23° |
| 2026-04-27 17:31 | 46.57826 | 0.53596 | 37998 ft | 455 kts | 11° |
| 2026-04-27 17:31 | 46.60920 | 0.54582 | 37997 ft | 456 kts | 13° |
| 2026-04-27 17:32 | 46.70211 | 0.57716 | 38000 ft | 457 kts | 12° |
| 2026-04-27 17:33 | 46.76411 | 0.59765 | 38000 ft | 457 kts | 12° |
| 2026-04-27 17:33 | 46.82613 | 0.61818 | 38000 ft | 457 kts | 12° |
| 2026-04-27 17:34 | 46.87766 | 0.63526 | 38001 ft | 457 kts | 12° |
| 2026-04-27 17:34 | 46.93963 | 0.65586 | 38000 ft | 457 kts | 12° |
| 2026-04-27 17:35 | 47.00166 | 0.67653 | 38000 ft | 457 kts | 12° |
| 2026-04-27 17:35 | 47.06158 | 0.70579 | 37994 ft | 455 kts | 31° |
| 2026-04-27 17:36 | 47.11612 | 0.75340 | 37992 ft | 457 kts | 30° |
| 2026-04-27 17:36 | 47.17061 | 0.80171 | 38000 ft | 457 kts | 31° |
| 2026-04-27 17:37 | 47.22494 | 0.85026 | 38000 ft | 457 kts | 31° |
| 2026-04-27 17:37 | 47.27930 | 0.89896 | 38000 ft | 457 kts | 31° |
| 2026-04-27 17:38 | 47.33364 | 0.94777 | 38000 ft | 457 kts | 31° |
| 2026-04-27 17:38 | 47.38793 | 0.99663 | 38000 ft | 457 kts | 31° |
| 2026-04-27 17:39 | 47.44221 | 1.04561 | 38000 ft | 457 kts | 31° |
| 2026-04-27 17:39 | 47.49607 | 1.09431 | 38000 ft | 457 kts | 30° |
| 2026-04-27 17:40 | 47.55236 | 1.13809 | 38001 ft | 457 kts | 27° |
| 2026-04-27 17:40 | 47.60860 | 1.18207 | 38000 ft | 457 kts | 27° |
| 2026-04-27 17:41 | 47.66480 | 1.22625 | 38000 ft | 457 kts | 27° |
| 2026-04-27 17:41 | 47.72097 | 1.27051 | 38000 ft | 457 kts | 27° |
| 2026-04-27 17:42 | 47.77714 | 1.31487 | 38000 ft | 457 kts | 27° |
| 2026-04-27 17:42 | 47.83332 | 1.35936 | 38000 ft | 457 kts | 27° |
| 2026-04-27 17:43 | 47.88943 | 1.40390 | 38000 ft | 457 kts | 27° |
| 2026-04-27 17:43 | 47.94553 | 1.44855 | 38000 ft | 457 kts | 27° |
| 2026-04-27 17:44 | 48.00166 | 1.49332 | 38000 ft | 457 kts | 27° |
| 2026-04-27 17:44 | 48.05773 | 1.53815 | 38000 ft | 457 kts | 28° |
| 2026-04-27 17:45 | 48.11379 | 1.58309 | 38000 ft | 457 kts | 28° |
| 2026-04-27 17:45 | 48.16990 | 1.62805 | 38000 ft | 457 kts | 27° |
| 2026-04-27 17:46 | 48.22596 | 1.67305 | 38000 ft | 457 kts | 28° |
| 2026-04-27 17:46 | 48.28202 | 1.71817 | 38000 ft | 457 kts | 28° |
| 2026-04-27 17:47 | 48.33805 | 1.76337 | 38000 ft | 457 kts | 28° |
| 2026-04-27 17:47 | 48.39405 | 1.80866 | 38000 ft | 457 kts | 28° |
| 2026-04-27 17:48 | 48.45006 | 1.85409 | 38000 ft | 457 kts | 28° |
| 2026-04-27 17:48 | 48.50605 | 1.89960 | 38000 ft | 457 kts | 28° |
| 2026-04-27 17:49 | 48.56204 | 1.94523 | 38000 ft | 457 kts | 28° |
| 2026-04-27 17:49 | 48.61795 | 1.99091 | 38000 ft | 457 kts | 28° |
| 2026-04-27 17:50 | 48.67351 | 2.03642 | 38000 ft | 457 kts | 28° |
| 2026-04-27 17:50 | 48.75130 | 2.11759 | 38003 ft | 455 kts | 54° |
| 2026-04-27 17:51 | 48.76719 | 2.15890 | 38008 ft | 455 kts | 66° |
| 2026-04-27 17:51 | 48.77986 | 2.20295 | 38002 ft | 457 kts | 66° |
| 2026-04-27 17:51 | 48.80436 | 2.29186 | 38001 ft | 457 kts | 68° |
| 2026-04-27 17:52 | 48.82825 | 2.38128 | 38001 ft | 457 kts | 68° |
| 2026-04-27 17:52 | 48.85196 | 2.47075 | 38001 ft | 457 kts | 68° |
| 2026-04-27 17:53 | 48.87562 | 2.56039 | 38000 ft | 457 kts | 68° |
| 2026-04-27 17:53 | 48.89921 | 2.65005 | 38000 ft | 457 kts | 68° |
| 2026-04-27 17:54 | 48.92264 | 2.73953 | 37396 ft | 453 kts | 68° |
| 2026-04-27 17:54 | 48.93419 | 2.78376 | 37127 ft | 443 kts | 68° |
| 2026-04-27 17:54 | 48.94541 | 2.82681 | 36862 ft | 435 kts | 68° |
| 2026-04-27 17:55 | 48.95649 | 2.86941 | 36353 ft | 432 kts | 68° |
| 2026-04-27 17:55 | 48.96755 | 2.91198 | 35772 ft | 432 kts | 68° |
| 2026-04-27 17:55 | 48.97854 | 2.95438 | 35269 ft | 430 kts | 68° |
| 2026-04-27 17:55 | 48.98946 | 2.99660 | 34781 ft | 427 kts | 68° |
| 2026-04-27 17:56 | 49.00028 | 3.03849 | 34307 ft | 424 kts | 68° |
| 2026-04-27 17:56 | 49.01101 | 3.08012 | 33837 ft | 421 kts | 68° |
| 2026-04-27 17:56 | 49.02166 | 3.12149 | 33365 ft | 418 kts | 68° |
| 2026-04-27 17:56 | 49.03222 | 3.16260 | 32909 ft | 415 kts | 68° |
| 2026-04-27 17:57 | 49.04270 | 3.20347 | 32453 ft | 412 kts | 68° |
| 2026-04-27 17:57 | 49.05308 | 3.24403 | 32007 ft | 410 kts | 69° |
| 2026-04-27 17:57 | 49.06338 | 3.28438 | 31562 ft | 407 kts | 69° |
| 2026-04-27 17:57 | 49.07360 | 3.32444 | 31130 ft | 404 kts | 69° |
| 2026-04-27 17:58 | 49.08373 | 3.36425 | 30710 ft | 401 kts | 69° |
| 2026-04-27 17:58 | 49.09376 | 3.40370 | 30295 ft | 398 kts | 69° |
| 2026-04-27 17:58 | 49.10370 | 3.44289 | 29883 ft | 394 kts | 69° |
| 2026-04-27 17:58 | 49.11355 | 3.48178 | 29469 ft | 392 kts | 69° |
| 2026-04-27 17:59 | 49.12331 | 3.52035 | 29098 ft | 388 kts | 69° |
| 2026-04-27 17:59 | 49.13284 | 3.55807 | 28744 ft | 384 kts | 69° |
| 2026-04-27 17:59 | 49.14097 | 3.59738 | 28230 ft | 384 kts | 77° |
| 2026-04-27 17:59 | 49.14285 | 3.61021 | 28095 ft | 383 kts | 77° |
| 2026-04-27 18:01 | 49.17962 | 3.83058 | 25929 ft | 367 kts | 75° |
| 2026-04-27 18:01 | 49.18600 | 3.86817 | 25558 ft | 365 kts | 75° |
| 2026-04-27 18:01 | 49.19235 | 3.90570 | 25189 ft | 362 kts | 75° |
| 2026-04-27 18:01 | 49.19864 | 3.94289 | 24828 ft | 360 kts | 75° |
| 2026-04-27 18:02 | 49.20485 | 3.97971 | 24473 ft | 357 kts | 75° |
| 2026-04-27 18:02 | 49.21100 | 4.01631 | 24120 ft | 354 kts | 75° |
| 2026-04-27 18:02 | 49.21711 | 4.05268 | 23773 ft | 351 kts | 75° |
| 2026-04-27 18:02 | 49.22315 | 4.08869 | 23430 ft | 348 kts | 75° |
| 2026-04-27 18:03 | 49.22912 | 4.12443 | 23090 ft | 345 kts | 76° |
| 2026-04-27 18:03 | 49.23503 | 4.15984 | 22751 ft | 343 kts | 76° |
| 2026-04-27 18:03 | 49.24088 | 4.19501 | 22421 ft | 340 kts | 76° |
| 2026-04-27 18:03 | 49.24672 | 4.23011 | 22091 ft | 342 kts | 76° |
| 2026-04-27 18:04 | 49.25260 | 4.26560 | 21744 ft | 347 kts | 76° |
| 2026-04-27 18:04 | 49.25854 | 4.30148 | 21410 ft | 348 kts | 76° |
| 2026-04-27 18:04 | 49.26445 | 4.33730 | 21071 ft | 346 kts | 76° |
| 2026-04-27 18:04 | 49.27033 | 4.37296 | 20740 ft | 345 kts | 76° |
| 2026-04-27 18:05 | 49.27617 | 4.40849 | 20406 ft | 343 kts | 76° |
| 2026-04-27 18:05 | 49.28197 | 4.44384 | 20070 ft | 341 kts | 76° |
| 2026-04-27 18:05 | 49.28772 | 4.47897 | 19734 ft | 339 kts | 76° |
| 2026-04-27 18:05 | 49.29343 | 4.51392 | 19408 ft | 336 kts | 76° |
| 2026-04-27 18:06 | 49.29900 | 4.54805 | 19085 ft | 333 kts | 76° |
| 2026-04-27 18:06 | 49.30457 | 4.58230 | 18766 ft | 330 kts | 76° |
| 2026-04-27 18:06 | 49.31010 | 4.61632 | 18439 ft | 327 kts | 76° |
| 2026-04-27 18:06 | 49.31555 | 4.64999 | 18119 ft | 324 kts | 76° |
| 2026-04-27 18:07 | 49.32096 | 4.68342 | 17803 ft | 321 kts | 76° |
| 2026-04-27 18:07 | 49.32631 | 4.71655 | 17485 ft | 319 kts | 76° |
| 2026-04-27 18:07 | 49.33159 | 4.74931 | 17175 ft | 316 kts | 76° |
| 2026-04-27 18:07 | 49.33683 | 4.78188 | 16858 ft | 313 kts | 76° |
| 2026-04-27 18:08 | 49.34200 | 4.81410 | 16558 ft | 310 kts | 76° |
| 2026-04-27 18:08 | 49.34715 | 4.84626 | 16248 ft | 312 kts | 76° |
| 2026-04-27 18:08 | 49.35235 | 4.87882 | 15912 ft | 317 kts | 76° |
| 2026-04-27 18:08 | 49.35760 | 4.91172 | 15613 ft | 318 kts | 76° |
| 2026-04-27 18:09 | 49.36285 | 4.94467 | 15301 ft | 317 kts | 76° |
| 2026-04-27 18:09 | 49.36803 | 4.97732 | 14991 ft | 314 kts | 76° |
| 2026-04-27 18:09 | 49.37317 | 5.00970 | 14673 ft | 311 kts | 76° |
| 2026-04-27 18:09 | 49.37826 | 5.04177 | 14365 ft | 308 kts | 76° |
| 2026-04-27 18:10 | 49.38330 | 5.07360 | 14048 ft | 306 kts | 76° |
| 2026-04-27 18:10 | 49.38829 | 5.10517 | 13744 ft | 303 kts | 76° |
| 2026-04-27 18:10 | 49.39403 | 5.13612 | 13409 ft | 301 kts | 71° |
| 2026-04-27 18:10 | 49.40086 | 5.16644 | 13071 ft | 300 kts | 71° |
| 2026-04-27 18:11 | 49.40754 | 5.19664 | 12770 ft | 297 kts | 71° |
| 2026-04-27 18:11 | 49.41407 | 5.22655 | 12478 ft | 294 kts | 71° |
| 2026-04-27 18:11 | 49.42050 | 5.25624 | 12184 ft | 292 kts | 71° |
| 2026-04-27 18:11 | 49.42686 | 5.28575 | 11877 ft | 290 kts | 71° |
| 2026-04-27 18:12 | 49.43316 | 5.31498 | 11582 ft | 288 kts | 71° |
| 2026-04-27 18:12 | 49.43949 | 5.34442 | 11282 ft | 293 kts | 71° |
| 2026-04-27 18:12 | 49.44583 | 5.37396 | 10974 ft | 296 kts | 72° |
| 2026-04-27 18:12 | 49.45227 | 5.40407 | 10659 ft | 297 kts | 72° |
| 2026-04-27 18:13 | 49.45873 | 5.43424 | 10365 ft | 297 kts | 72° |
| 2026-04-27 18:13 | 49.46513 | 5.46422 | 10147 ft | 293 kts | 72° |
| 2026-04-27 18:13 | 49.47138 | 5.49354 | 9978 ft | 285 kts | 72° |
| 2026-04-27 18:13 | 49.47755 | 5.52246 | 9673 ft | 283 kts | 72° |
| 2026-04-27 18:14 | 49.48365 | 5.55115 | 9382 ft | 282 kts | 72° |
| 2026-04-27 18:14 | 49.48837 | 5.58024 | 9047 ft | 280 kts | 83° |
| 2026-04-27 18:14 | 49.49037 | 5.60980 | 8832 ft | 274 kts | 84° |
| 2026-04-27 18:14 | 49.49232 | 5.63850 | 8721 ft | 265 kts | 84° |
| 2026-04-27 18:15 | 49.49360 | 5.65698 | 8639 ft | 260 kts | 84° |
| 2026-04-27 18:15 | 49.49614 | 5.69311 | 8460 ft | 248 kts | 84° |
| 2026-04-27 18:15 | 49.49737 | 5.71035 | 8416 ft | 242 kts | 84° |
| 2026-04-27 18:15 | 49.49981 | 5.74477 | 8232 ft | 242 kts | 84° |
| 2026-04-27 18:16 | 49.50102 | 5.76180 | 8129 ft | 241 kts | 84° |
| 2026-04-27 18:16 | 49.50286 | 5.78764 | 7709 ft | 249 kts | 84° |
| 2026-04-27 18:16 | 49.50350 | 5.79670 | 7450 ft | 256 kts | 84° |
| 2026-04-27 18:18 | 49.56458 | 5.97651 | 4083 ft | 223 kts | 345° |
| 2026-04-27 18:18 | 49.57778 | 5.96460 | 4021 ft | 223 kts | 313° |
| 2026-04-27 18:18 | 49.58451 | 5.94334 | 3991 ft | 225 kts | 278° |
| 2026-04-27 18:19 | 49.58256 | 5.91962 | 3986 ft | 227 kts | 248° |
| 2026-04-27 18:19 | 49.57575 | 5.89753 | 4009 ft | 229 kts | 243° |
| 2026-04-27 18:19 | 49.56852 | 5.87565 | 4002 ft | 229 kts | 243° |
| 2026-04-27 18:19 | 49.56136 | 5.85396 | 3944 ft | 224 kts | 243° |
| 2026-04-27 18:20 | 49.55410 | 5.83332 | 3759 ft | 219 kts | 232° |
| 2026-04-27 18:20 | 49.54176 | 5.82090 | 3575 ft | 209 kts | 186° |
| 2026-04-27 18:20 | 49.52822 | 5.82486 | 3460 ft | 203 kts | 147° |
| 2026-04-27 18:20 | 49.51733 | 5.83866 | 3443 ft | 206 kts | 129° |
| 2026-04-27 18:21 | 49.51029 | 5.85766 | 3340 ft | 205 kts | 104° |
| 2026-04-27 18:21 | 49.51008 | 5.87918 | 3245 ft | 203 kts | 74° |
| 2026-04-27 18:21 | 49.51609 | 5.89877 | 3193 ft | 205 kts | 60° |
| 2026-04-27 18:21 | 49.52296 | 5.91805 | 3095 ft | 205 kts | 62° |
| 2026-04-27 18:22 | 49.52959 | 5.93738 | 3005 ft | 204 kts | 63° |
| 2026-04-27 18:22 | 49.53614 | 5.95677 | 2965 ft | 204 kts | 63° |
| 2026-04-27 18:22 | 49.54173 | 5.97674 | 2977 ft | 204 kts | 72° |
| 2026-04-27 18:22 | 49.54677 | 5.99713 | 3006 ft | 204 kts | 64° |
| 2026-04-27 18:23 | 49.55357 | 6.01627 | 2998 ft | 204 kts | 60° |
| 2026-04-27 18:23 | 49.56072 | 6.03513 | 3002 ft | 204 kts | 60° |
| 2026-04-27 18:23 | 49.56780 | 6.05415 | 2997 ft | 204 kts | 60° |
| 2026-04-27 18:23 | 49.57469 | 6.07258 | 2923 ft | 192 kts | 60° |
| 2026-04-27 18:24 | 49.58105 | 6.08967 | 2684 ft | 175 kts | 60° |
| 2026-04-27 18:24 | 49.58685 | 6.10528 | 2436 ft | 161 kts | 60° |
| 2026-04-27 18:24 | 49.59220 | 6.11963 | 2243 ft | 149 kts | 61° |
| 2026-04-27 18:24 | 49.59726 | 6.13323 | 2065 ft | 145 kts | 60° |
| 2026-04-27 18:25 | 49.60224 | 6.14667 | 1834 ft | 144 kts | 59° |
| 2026-04-27 18:25 | 49.60731 | 6.15994 | 1584 ft | 143 kts | 59° |
| 2026-04-27 18:25 | 49.61210 | 6.17303 | 1379 ft | 138 kts | 60° |
| 2026-04-27 18:25 | 49.61708 | 6.18624 | 1231 ft | 146 kts | 60° |
| 2026-04-27 18:26 | 49.62193 | 6.19935 | 1213 ft | 128 kts | 60° |
| 2026-04-27 18:26 | 49.62556 | 6.20914 | 1242 ft | 79 kts | 61° |
| 2026-04-27 18:26 | 49.62758 | 6.21457 | 1227 ft | 37 kts | 60° |
| 2026-04-27 18:26 | 49.62865 | 6.21742 | 1218 ft | 32 kts | 60° |
| 2026-04-27 18:27 | 49.62968 | 6.22022 | 1217 ft | 19 kts | 60° |
| 2026-04-27 18:27 | 49.63062 | 6.22118 | 1219 ft | 16 kts | 343° |
| 2026-04-27 18:27 | 49.63134 | 6.22059 | 1225 ft | 7 kts | 329° |
| 2026-04-27 18:27 | 49.63140 | 6.22054 | 1226 ft | 0 kts | 330° |
| 2026-04-27 18:28 | 49.63155 | 6.22041 | 1228 ft | 8 kts | 329° |
| 2026-04-27 18:28 | 49.63174 | 6.21961 | 1230 ft | 9 kts | 251° |
| 2026-04-27 18:29 | 49.63142 | 6.21855 | 1229 ft | 13 kts | 243° |
| 2026-04-27 18:29 | 49.63145 | 6.21779 | 1229 ft | 2 kts | 308° |
| 2026-04-27 18:29 | 49.63150 | 6.21770 | 1230 ft | 1 kts | 315° |
| 2026-04-27 18:29 | 49.63151 | 6.21769 | 1230 ft | 0 kts | 316° |
| 2026-04-27 18:30 | 49.63152 | 6.21766 | 1230 ft | 0 kts | 306° |
| 2026-04-27 18:30 | 49.63151 | 6.21760 | 1230 ft | 0 kts | 256° |
| 2026-04-27 18:30 | 49.63150 | 6.21758 | 1230 ft | 0 kts | 233° |
| 2026-04-27 18:30 | 49.63145 | 6.21757 | 1230 ft | 2 kts | 192° |
| 2026-04-27 18:31 | 49.63097 | 6.21707 | 1228 ft | 13 kts | 237° |
| 2026-04-27 18:31 | 49.63089 | 6.21638 | 1229 ft | 3 kts | 316° |
| 2026-04-27 18:31 | 49.63107 | 6.21621 | 1231 ft | 5 kts | 331° |
| 2026-04-27 18:31 | 49.63162 | 6.21583 | 1232 ft | 14 kts | 333° |
| 2026-04-27 18:32 | 49.63243 | 6.21533 | 1232 ft | 6 kts | 12° |
| 2026-04-27 18:32 | 49.63276 | 6.21536 | 1232 ft | 1 kts | 335° |
| 2026-04-27 18:32 | 49.63278 | 6.21534 | 1232 ft | 0 kts | 332° |
| 2026-04-27 18:32 | 49.63291 | 6.21523 | 1232 ft | 6 kts | 330° |
| 2026-04-27 18:33 | 49.63306 | 6.21509 | 1232 ft | 0 kts | 330° |
| 2026-04-27 18:33 | 49.63309 | 6.21507 | 1232 ft | 0 kts | 330° |